Startpagina
METAR-TAF:

METAR-TAF

Vliegvelden :

Aeroporto Internacional do Recife

Recife, Pernambuco, Brazilië

breedte: 08-08S, lengte: 034-55W, hoogte: 19 m

Actueel weer

Dit bericht is 42 minuten geleden gemaakt, om 23:00 UTC
Wind 9 kt uit het zuidzuidoosten
Temperatuur 26°C
Vochtigheid 84%
Druk 1016 hPa
Zicht 10 km of meer
Verspreide wolken op 2100 ft
Verspreide wolken op 7000 ft

METAR: SBRF 052300Z 16009KT 9999 SCT021 SCT070 26/23 Q1016

Tijdstip: 20:42 (23:42 UTC)

Verwachting

Dit bericht is 2 uur en het 42 minuten geleden gemaakt, om 21:00 UTC
Verwachting geldig van 06 om 00 UTC tot 07 om 00 UTC
Wind 9 kt uit het zuidzuidoosten
Zicht 10 km of meer
Verspreide wolken op 2500 ft
Wijzigt naar
van 06 om 00 UTC tot 06 om 02 UTC
Zicht: 8000 m
Gebroken wolken op 1500 ft
Wijzigt naar
van 06 om 12 UTC tot 06 om 14 UTC
Zicht 10 km of meer
Verspreide wolken op 2500 ft

TAF: SBRF 052100Z 0600/0700 15009KT 9999 SCT025 TN23/0608Z TX30/0617Z BECMG 0600/0602 8000 BKN015 BECMG 0612/0614 9999 NSW SCT025 RMK PDG

Waarnemingen en weersverwachtingen van meer dan 4000 vliegvelden (METAR en TAF).

De beschikbare stations zijn de gele en rode punten op de kaart.

Ga met uw muis naar het station om de naam te zien.

Klik dan om waarnemingen en weersverwachtingen te zien.

kaart wijzigen: klik op de groene knoppen met een zwart kruis om in te zoomen, op de groene knop met een streepje om uit te zoomen of op de groene pijlen voor aangrenzende kaarten.


METAR-TAF: